Arncliffe, Australia
Current Conditions -  °F | °C
As of 10:00 AM on Wednesday 26 Nov 2014 (Local Time) from YSSY Reporting Station
Broken Clouds Broken Clouds  
Wind Chill: 73°   Ceiling: 6500
Heat Index: 73°   Visibility: 6mi
Dew Point: 55°   Wind: 12mph
Humidity: 53%   Direction: 30°NNE
Pressure: 30.09"   Gusts: NA
Location:  33.93°S, 151.15°E
Report Text: YSSY 252300Z 03010KT 9999 FEW030 SCT050 BKN065 23/13 Q1019 NOSIG
Loading
Personal Weather Stations






























Interactive Weather Map New forecast layout! Learn more

10-Day Weather Forecast

Advertisements
Track Severe Weather on mobile